sensor_id;sensor_type;location;lat;lon;timestamp;temperature;humidity
33761;DHT22;20084;47.912;19.044;2023-08-31T00:00:11;17.00;99.90
33761;DHT22;20084;47.912;19.044;2023-08-31T00:02:38;16.90;99.90
33761;DHT22;20084;47.912;19.044;2023-08-31T00:05:05;17.00;99.90
33761;DHT22;20084;47.912;19.044;2023-08-31T00:07:31;17.00;99.90
33761;DHT22;20084;47.912;19.044;2023-08-31T00:09:57;17.10;99.90
33761;DHT22;20084;47.912;19.044;2023-08-31T00:12:24;17.10;99.90
33761;DHT22;20084;47.912;19.044;2023-08-31T00:14:50;17.20;99.90
33761;DHT22;20084;47.912;19.044;2023-08-31T00:17:16;17.20;99.90
33761;DHT22;20084;47.912;19.044;2023-08-31T00:19:43;17.20;99.90
33761;DHT22;20084;47.912;19.044;2023-08-31T00:22:09;17.20;99.90
33761;DHT22;20084;47.912;19.044;2023-08-31T00:24:34;17.20;99.90
33761;DHT22;20084;47.912;19.044;2023-08-31T00:27:02;17.20;99.90
33761;DHT22;20084;47.912;19.044;2023-08-31T00:29:29;17.20;99.90
33761;DHT22;20084;47.912;19.044;2023-08-31T00:31:55;17.10;99.90
33761;DHT22;20084;47.912;19.044;2023-08-31T00:34:21;17.10;99.90
33761;DHT22;20084;47.912;19.044;2023-08-31T00:36:47;17.00;99.90
33761;DHT22;20084;47.912;19.044;2023-08-31T00:39:14;16.90;99.90
33761;DHT22;20084;47.912;19.044;2023-08-31T00:41:39;16.90;99.90
33761;DHT22;20084;47.912;19.044;2023-08-31T00:44:05;16.90;99.90
33761;DHT22;20084;47.912;19.044;2023-08-31T00:46:31;16.90;99.90
33761;DHT22;20084;47.912;19.044;2023-08-31T00:48:58;16.90;99.90
33761;DHT22;20084;47.912;19.044;2023-08-31T00:51:24;16.90;99.90
33761;DHT22;20084;47.912;19.044;2023-08-31T00:53:52;16.90;99.90
33761;DHT22;20084;47.912;19.044;2023-08-31T00:56:20;16.90;99.90
33761;DHT22;20084;47.912;19.044;2023-08-31T00:58:45;16.90;99.90
33761;DHT22;20084;47.912;19.044;2023-08-31T01:01:31;16.90;99.90
33761;DHT22;20084;47.912;19.044;2023-08-31T01:04:18;16.90;99.90
33761;DHT22;20084;47.912;19.044;2023-08-31T01:10:11;17.00;99.90
33761;DHT22;20084;47.912;19.044;2023-08-31T01:13:21;17.00;99.90
33761;DHT22;20084;47.912;19.044;2023-08-31T01:15:42;17.00;99.90
33761;DHT22;20084;47.912;19.044;2023-08-31T01:18:11;17.00;99.90
33761;DHT22;20084;47.912;19.044;2023-08-31T01:20:44;17.10;99.90
33761;DHT22;20084;47.912;19.044;2023-08-31T01:23:19;17.10;99.90
33761;DHT22;20084;47.912;19.044;2023-08-31T01:25:46;17.20;99.90
33761;DHT22;20084;47.912;19.044;2023-08-31T01:28:13;17.20;99.90
33761;DHT22;20084;47.912;19.044;2023-08-31T01:30:39;17.30;99.90
33761;DHT22;20084;47.912;19.044;2023-08-31T01:33:05;17.30;99.90
33761;DHT22;20084;47.912;19.044;2023-08-31T01:35:38;17.40;99.90
33761;DHT22;20084;47.912;19.044;2023-08-31T01:38:07;17.30;99.90
33761;DHT22;20084;47.912;19.044;2023-08-31T01:41:00;17.30;99.90
33761;DHT22;20084;47.912;19.044;2023-08-31T01:43:27;17.30;99.90
33761;DHT22;20084;47.912;19.044;2023-08-31T01:45:53;17.20;99.90
33761;DHT22;20084;47.912;19.044;2023-08-31T01:48:19;17.30;99.90
33761;DHT22;20084;47.912;19.044;2023-08-31T01:50:45;17.30;99.90
33761;DHT22;20084;47.912;19.044;2023-08-31T01:53:10;17.30;99.90
33761;DHT22;20084;47.912;19.044;2023-08-31T01:55:37;17.20;99.90
33761;DHT22;20084;47.912;19.044;2023-08-31T01:58:03;17.20;99.90
33761;DHT22;20084;47.912;19.044;2023-08-31T02:00:28;17.10;99.90
33761;DHT22;20084;47.912;19.044;2023-08-31T02:02:54;17.10;99.90
33761;DHT22;20084;47.912;19.044;2023-08-31T02:05:19;17.10;99.90
33761;DHT22;20084;47.912;19.044;2023-08-31T02:07:45;17.10;99.90
33761;DHT22;20084;47.912;19.044;2023-08-31T02:10:10;17.10;99.90
33761;DHT22;20084;47.912;19.044;2023-08-31T02:12:36;17.10;99.90
33761;DHT22;20084;47.912;19.044;2023-08-31T02:15:04;17.10;99.90
33761;DHT22;20084;47.912;19.044;2023-08-31T02:17:30;17.00;99.90
33761;DHT22;20084;47.912;19.044;2023-08-31T02:19:56;17.00;99.90
33761;DHT22;20084;47.912;19.044;2023-08-31T02:22:23;17.00;99.90
33761;DHT22;20084;47.912;19.044;2023-08-31T02:24:48;17.00;99.90
33761;DHT22;20084;47.912;19.044;2023-08-31T02:27:14;17.00;99.90
33761;DHT22;20084;47.912;19.044;2023-08-31T02:29:40;16.90;99.90
33761;DHT22;20084;47.912;19.044;2023-08-31T02:32:06;16.80;99.90
33761;DHT22;20084;47.912;19.044;2023-08-31T02:34:31;16.80;99.90
33761;DHT22;20084;47.912;19.044;2023-08-31T02:36:57;16.80;99.90
33761;DHT22;20084;47.912;19.044;2023-08-31T02:39:23;16.80;99.90
33761;DHT22;20084;47.912;19.044;2023-08-31T02:41:49;16.70;99.90
33761;DHT22;20084;47.912;19.044;2023-08-31T02:44:14;16.80;99.90
33761;DHT22;20084;47.912;19.044;2023-08-31T02:46:40;16.80;99.90
33761;DHT22;20084;47.912;19.044;2023-08-31T02:49:05;16.70;99.90
33761;DHT22;20084;47.912;19.044;2023-08-31T02:51:31;16.80;99.90
33761;DHT22;20084;47.912;19.044;2023-08-31T02:53:56;16.80;99.90
33761;DHT22;20084;47.912;19.044;2023-08-31T02:56:23;16.90;99.90
33761;DHT22;20084;47.912;19.044;2023-08-31T02:58:48;16.90;99.90
33761;DHT22;20084;47.912;19.044;2023-08-31T03:01:14;16.90;99.90
33761;DHT22;20084;47.912;19.044;2023-08-31T03:03:41;16.90;99.90
33761;DHT22;20084;47.912;19.044;2023-08-31T03:06:08;16.90;99.90
33761;DHT22;20084;47.912;19.044;2023-08-31T03:08:34;16.80;99.90
33761;DHT22;20084;47.912;19.044;2023-08-31T03:11:00;16.80;99.90
33761;DHT22;20084;47.912;19.044;2023-08-31T03:13:25;16.90;99.90
33761;DHT22;20084;47.912;19.044;2023-08-31T03:15:51;16.90;99.90
33761;DHT22;20084;47.912;19.044;2023-08-31T03:18:17;16.80;99.90
33761;DHT22;20084;47.912;19.044;2023-08-31T03:20:42;16.90;99.90
33761;DHT22;20084;47.912;19.044;2023-08-31T03:23:08;16.90;99.90
33761;DHT22;20084;47.912;19.044;2023-08-31T03:25:35;16.80;99.90
33761;DHT22;20084;47.912;19.044;2023-08-31T03:28:00;16.80;99.90
33761;DHT22;20084;47.912;19.044;2023-08-31T03:30:26;16.80;99.90
33761;DHT22;20084;47.912;19.044;2023-08-31T03:32:51;16.70;99.90
33761;DHT22;20084;47.912;19.044;2023-08-31T03:35:17;16.70;99.90
33761;DHT22;20084;47.912;19.044;2023-08-31T03:37:43;16.80;99.90
33761;DHT22;20084;47.912;19.044;2023-08-31T03:40:12;16.70;99.90
33761;DHT22;20084;47.912;19.044;2023-08-31T03:42:37;16.80;99.90
33761;DHT22;20084;47.912;19.044;2023-08-31T03:45:04;16.80;99.90
33761;DHT22;20084;47.912;19.044;2023-08-31T03:47:29;16.80;99.90
33761;DHT22;20084;47.912;19.044;2023-08-31T03:49:56;16.70;99.90
33761;DHT22;20084;47.912;19.044;2023-08-31T03:52:21;16.70;99.90
33761;DHT22;20084;47.912;19.044;2023-08-31T03:54:48;16.50;99.90
33761;DHT22;20084;47.912;19.044;2023-08-31T03:57:13;16.40;99.90
33761;DHT22;20084;47.912;19.044;2023-08-31T03:59:39;16.30;99.90
33761;DHT22;20084;47.912;19.044;2023-08-31T04:02:05;16.30;99.90
33761;DHT22;20084;47.912;19.044;2023-08-31T04:04:30;16.20;99.90
33761;DHT22;20084;47.912;19.044;2023-08-31T04:06:56;16.10;99.90
33761;DHT22;20084;47.912;19.044;2023-08-31T04:09:21;16.00;99.90
33761;DHT22;20084;47.912;19.044;2023-08-31T04:11:47;15.90;99.90
33761;DHT22;20084;47.912;19.044;2023-08-31T04:14:12;15.90;99.90
33761;DHT22;20084;47.912;19.044;2023-08-31T04:16:38;15.90;99.90
33761;DHT22;20084;47.912;19.044;2023-08-31T04:19:04;15.90;99.90
33761;DHT22;20084;47.912;19.044;2023-08-31T04:21:29;16.00;99.90
33761;DHT22;20084;47.912;19.044;2023-08-31T04:23:55;16.00;99.90
33761;DHT22;20084;47.912;19.044;2023-08-31T04:26:21;16.00;99.90
33761;DHT22;20084;47.912;19.044;2023-08-31T04:28:47;16.10;99.90
33761;DHT22;20084;47.912;19.044;2023-08-31T04:31:12;16.10;99.90
33761;DHT22;20084;47.912;19.044;2023-08-31T04:33:38;16.10;99.90
33761;DHT22;20084;47.912;19.044;2023-08-31T04:36:05;16.20;99.90
33761;DHT22;20084;47.912;19.044;2023-08-31T04:38:31;16.20;99.90
33761;DHT22;20084;47.912;19.044;2023-08-31T04:41:01;16.20;99.90
33761;DHT22;20084;47.912;19.044;2023-08-31T04:43:27;16.20;99.90
33761;DHT22;20084;47.912;19.044;2023-08-31T04:45:53;16.20;99.90
33761;DHT22;20084;47.912;19.044;2023-08-31T04:48:19;16.20;99.90
33761;DHT22;20084;47.912;19.044;2023-08-31T04:50:45;16.20;99.90
33761;DHT22;20084;47.912;19.044;2023-08-31T04:53:11;16.20;99.90
33761;DHT22;20084;47.912;19.044;2023-08-31T04:55:36;16.30;99.90
33761;DHT22;20084;47.912;19.044;2023-08-31T04:58:03;16.30;99.90
33761;DHT22;20084;47.912;19.044;2023-08-31T05:00:29;16.30;99.90
33761;DHT22;20084;47.912;19.044;2023-08-31T05:02:55;16.40;99.90
33761;DHT22;20084;47.912;19.044;2023-08-31T05:05:21;16.40;99.90
33761;DHT22;20084;47.912;19.044;2023-08-31T05:07:47;16.40;99.90
33761;DHT22;20084;47.912;19.044;2023-08-31T05:10:12;16.40;99.90
33761;DHT22;20084;47.912;19.044;2023-08-31T05:12:38;16.50;99.90
33761;DHT22;20084;47.912;19.044;2023-08-31T05:15:04;16.60;99.90
33761;DHT22;20084;47.912;19.044;2023-08-31T05:17:30;16.60;99.90
33761;DHT22;20084;47.912;19.044;2023-08-31T05:19:56;16.70;99.90
33761;DHT22;20084;47.912;19.044;2023-08-31T05:22:22;16.70;99.90
33761;DHT22;20084;47.912;19.044;2023-08-31T05:24:48;16.70;99.90
33761;DHT22;20084;47.912;19.044;2023-08-31T05:27:13;16.80;99.90
33761;DHT22;20084;47.912;19.044;2023-08-31T05:29:39;16.90;99.90
33761;DHT22;20084;47.912;19.044;2023-08-31T05:32:05;17.00;99.90
33761;DHT22;20084;47.912;19.044;2023-08-31T05:34:31;17.00;99.90
33761;DHT22;20084;47.912;19.044;2023-08-31T05:36:58;17.10;99.90
33761;DHT22;20084;47.912;19.044;2023-08-31T05:39:24;17.20;99.90
33761;DHT22;20084;47.912;19.044;2023-08-31T05:41:50;17.20;99.90
33761;DHT22;20084;47.912;19.044;2023-08-31T05:44:16;17.30;99.90
33761;DHT22;20084;47.912;19.044;2023-08-31T05:46:42;17.30;99.90
33761;DHT22;20084;47.912;19.044;2023-08-31T05:49:08;17.30;99.90
33761;DHT22;20084;47.912;19.044;2023-08-31T05:51:34;17.40;99.90
33761;DHT22;20084;47.912;19.044;2023-08-31T05:53:59;17.50;99.90
33761;DHT22;20084;47.912;19.044;2023-08-31T05:56:25;17.60;99.90
33761;DHT22;20084;47.912;19.044;2023-08-31T05:58:51;17.70;99.90
33761;DHT22;20084;47.912;19.044;2023-08-31T06:01:20;17.70;99.90
33761;DHT22;20084;47.912;19.044;2023-08-31T06:03:45;17.90;99.90
33761;DHT22;20084;47.912;19.044;2023-08-31T06:06:11;18.00;99.90
33761;DHT22;20084;47.912;19.044;2023-08-31T06:08:36;18.00;99.90
33761;DHT22;20084;47.912;19.044;2023-08-31T06:11:02;18.10;99.90
33761;DHT22;20084;47.912;19.044;2023-08-31T06:13:28;18.10;99.90
33761;DHT22;20084;47.912;19.044;2023-08-31T06:15:53;18.20;99.90
33761;DHT22;20084;47.912;19.044;2023-08-31T06:18:21;18.30;99.90
33761;DHT22;20084;47.912;19.044;2023-08-31T06:20:48;18.40;99.90
33761;DHT22;20084;47.912;19.044;2023-08-31T06:23:14;18.40;99.90
33761;DHT22;20084;47.912;19.044;2023-08-31T06:25:39;18.50;99.90
33761;DHT22;20084;47.912;19.044;2023-08-31T06:28:05;18.50;99.90
33761;DHT22;20084;47.912;19.044;2023-08-31T06:30:34;18.50;99.90
33761;DHT22;20084;47.912;19.044;2023-08-31T06:33:00;18.60;99.90
33761;DHT22;20084;47.912;19.044;2023-08-31T06:35:26;18.60;99.90
33761;DHT22;20084;47.912;19.044;2023-08-31T06:37:51;18.60;99.90
33761;DHT22;20084;47.912;19.044;2023-08-31T06:40:17;18.60;99.90
33761;DHT22;20084;47.912;19.044;2023-08-31T06:42:43;18.70;99.90
33761;DHT22;20084;47.912;19.044;2023-08-31T06:45:09;18.80;99.90
33761;DHT22;20084;47.912;19.044;2023-08-31T06:47:35;18.80;99.90
33761;DHT22;20084;47.912;19.044;2023-08-31T06:50:01;18.90;99.90
33761;DHT22;20084;47.912;19.044;2023-08-31T06:52:27;19.00;99.90
33761;DHT22;20084;47.912;19.044;2023-08-31T06:54:53;19.10;99.90
33761;DHT22;20084;47.912;19.044;2023-08-31T06:57:23;19.20;99.90
33761;DHT22;20084;47.912;19.044;2023-08-31T06:59:49;19.20;99.90
33761;DHT22;20084;47.912;19.044;2023-08-31T07:02:15;19.30;99.90
33761;DHT22;20084;47.912;19.044;2023-08-31T07:04:41;19.30;99.90
33761;DHT22;20084;47.912;19.044;2023-08-31T07:07:07;19.30;99.90
33761;DHT22;20084;47.912;19.044;2023-08-31T07:09:34;19.20;99.90
33761;DHT22;20084;47.912;19.044;2023-08-31T07:12:00;19.20;99.90
33761;DHT22;20084;47.912;19.044;2023-08-31T07:14:26;19.20;99.90
33761;DHT22;20084;47.912;19.044;2023-08-31T07:16:52;19.30;99.90
33761;DHT22;20084;47.912;19.044;2023-08-31T07:19:18;19.20;99.90
33761;DHT22;20084;47.912;19.044;2023-08-31T07:21:43;19.20;99.90
33761;DHT22;20084;47.912;19.044;2023-08-31T07:24:09;19.30;99.90
33761;DHT22;20084;47.912;19.044;2023-08-31T07:26:35;19.40;99.90
33761;DHT22;20084;47.912;19.044;2023-08-31T07:29:01;19.50;99.90
33761;DHT22;20084;47.912;19.044;2023-08-31T07:31:30;19.70;99.90
33761;DHT22;20084;47.912;19.044;2023-08-31T07:33:56;19.80;99.90
33761;DHT22;20084;47.912;19.044;2023-08-31T07:36:22;19.90;99.90
33761;DHT22;20084;47.912;19.044;2023-08-31T07:38:48;19.90;99.90
33761;DHT22;20084;47.912;19.044;2023-08-31T07:41:14;19.90;99.90
33761;DHT22;20084;47.912;19.044;2023-08-31T07:43:40;20.00;99.90
33761;DHT22;20084;47.912;19.044;2023-08-31T07:46:05;20.00;99.90
33761;DHT22;20084;47.912;19.044;2023-08-31T07:48:31;20.00;99.90
33761;DHT22;20084;47.912;19.044;2023-08-31T07:50:56;20.00;99.90
33761;DHT22;20084;47.912;19.044;2023-08-31T07:53:22;20.10;99.90
33761;DHT22;20084;47.912;19.044;2023-08-31T07:55:55;20.00;99.90
33761;DHT22;20084;47.912;19.044;2023-08-31T07:58:22;20.10;99.90
33761;DHT22;20084;47.912;19.044;2023-08-31T08:00:48;20.10;99.90
33761;DHT22;20084;47.912;19.044;2023-08-31T08:03:14;20.00;99.90
33761;DHT22;20084;47.912;19.044;2023-08-31T08:05:40;20.10;99.90
33761;DHT22;20084;47.912;19.044;2023-08-31T08:08:07;20.10;99.90
33761;DHT22;20084;47.912;19.044;2023-08-31T08:10:32;20.10;99.90
33761;DHT22;20084;47.912;19.044;2023-08-31T08:12:58;20.20;99.90
33761;DHT22;20084;47.912;19.044;2023-08-31T08:15:24;20.30;99.90
33761;DHT22;20084;47.912;19.044;2023-08-31T08:17:50;20.30;99.90
33761;DHT22;20084;47.912;19.044;2023-08-31T08:20:15;20.40;99.90
33761;DHT22;20084;47.912;19.044;2023-08-31T08:22:41;20.50;99.90
33761;DHT22;20084;47.912;19.044;2023-08-31T08:25:07;20.50;99.90
33761;DHT22;20084;47.912;19.044;2023-08-31T08:27:33;20.50;99.90
33761;DHT22;20084;47.912;19.044;2023-08-31T08:29:59;20.60;99.90
33761;DHT22;20084;47.912;19.044;2023-08-31T08:32:25;20.50;99.90
33761;DHT22;20084;47.912;19.044;2023-08-31T08:34:51;20.40;99.90
33761;DHT22;20084;47.912;19.044;2023-08-31T08:37:17;20.30;99.90
33761;DHT22;20084;47.912;19.044;2023-08-31T08:39:42;20.40;99.90
33761;DHT22;20084;47.912;19.044;2023-08-31T08:42:10;20.40;99.90
33761;DHT22;20084;47.912;19.044;2023-08-31T08:44:36;20.40;99.90
33761;DHT22;20084;47.912;19.044;2023-08-31T08:47:02;20.30;99.90
33761;DHT22;20084;47.912;19.044;2023-08-31T08:49:30;20.10;99.90
33761;DHT22;20084;47.912;19.044;2023-08-31T08:51:57;19.90;99.90
33761;DHT22;20084;47.912;19.044;2023-08-31T08:54:23;19.70;99.90
33761;DHT22;20084;47.912;19.044;2023-08-31T08:56:49;19.60;99.90
33761;DHT22;20084;47.912;19.044;2023-08-31T08:59:14;19.60;99.90
33761;DHT22;20084;47.912;19.044;2023-08-31T09:01:40;19.60;99.90
33761;DHT22;20084;47.912;19.044;2023-08-31T09:04:06;19.60;99.90
33761;DHT22;20084;47.912;19.044;2023-08-31T09:06:32;19.60;99.90
33761;DHT22;20084;47.912;19.044;2023-08-31T09:08:58;19.70;99.90
33761;DHT22;20084;47.912;19.044;2023-08-31T09:11:25;19.80;99.90
33761;DHT22;20084;47.912;19.044;2023-08-31T09:13:53;19.80;99.90
33761;DHT22;20084;47.912;19.044;2023-08-31T09:16:25;19.90;99.90
33761;DHT22;20084;47.912;19.044;2023-08-31T09:18:54;20.00;99.90
33761;DHT22;20084;47.912;19.044;2023-08-31T09:21:20;20.00;99.90
33761;DHT22;20084;47.912;19.044;2023-08-31T09:23:59;20.00;99.90
33761;DHT22;20084;47.912;19.044;2023-08-31T09:26:24;20.10;99.90
33761;DHT22;20084;47.912;19.044;2023-08-31T09:28:50;20.20;99.90
33761;DHT22;20084;47.912;19.044;2023-08-31T09:31:17;20.20;99.90
33761;DHT22;20084;47.912;19.044;2023-08-31T09:33:52;20.30;99.90
33761;DHT22;20084;47.912;19.044;2023-08-31T09:36:19;20.40;99.90
33761;DHT22;20084;47.912;19.044;2023-08-31T09:38:45;20.40;99.90
33761;DHT22;20084;47.912;19.044;2023-08-31T09:41:11;20.50;99.90
33761;DHT22;20084;47.912;19.044;2023-08-31T09:43:37;20.70;99.90
33761;DHT22;20084;47.912;19.044;2023-08-31T09:46:04;20.80;99.90
33761;DHT22;20084;47.912;19.044;2023-08-31T09:48:31;20.90;99.90
33761;DHT22;20084;47.912;19.044;2023-08-31T09:50:57;21.10;99.90
33761;DHT22;20084;47.912;19.044;2023-08-31T09:53:29;21.10;99.90
33761;DHT22;20084;47.912;19.044;2023-08-31T09:55:55;21.00;99.90
33761;DHT22;20084;47.912;19.044;2023-08-31T09:58:21;21.10;99.90
33761;DHT22;20084;47.912;19.044;2023-08-31T10:00:51;21.20;99.90
33761;DHT22;20084;47.912;19.044;2023-08-31T10:03:17;21.40;99.90
33761;DHT22;20084;47.912;19.044;2023-08-31T10:05:43;21.60;99.90
33761;DHT22;20084;47.912;19.044;2023-08-31T10:08:09;21.70;99.90
33761;DHT22;20084;47.912;19.044;2023-08-31T10:10:37;21.70;99.90
33761;DHT22;20084;47.912;19.044;2023-08-31T10:13:04;21.60;99.90
33761;DHT22;20084;47.912;19.044;2023-08-31T10:15:35;21.60;99.90
33761;DHT22;20084;47.912;19.044;2023-08-31T10:18:02;21.60;99.90
33761;DHT22;20084;47.912;19.044;2023-08-31T10:20:29;21.70;99.90
33761;DHT22;20084;47.912;19.044;2023-08-31T10:23:02;21.70;99.90
33761;DHT22;20084;47.912;19.044;2023-08-31T10:28:24;21.80;99.90
33761;DHT22;20084;47.912;19.044;2023-08-31T10:33:34;21.60;99.90
33761;DHT22;20084;47.912;19.044;2023-08-31T10:36:00;21.70;99.90
33761;DHT22;20084;47.912;19.044;2023-08-31T10:38:32;21.80;99.90
33761;DHT22;20084;47.912;19.044;2023-08-31T10:51:31;21.60;99.90
33761;DHT22;20084;47.912;19.044;2023-08-31T10:54:20;21.90;99.90
33761;DHT22;20084;47.912;19.044;2023-08-31T10:57:04;22.10;99.90
33761;DHT22;20084;47.912;19.044;2023-08-31T10:59:53;22.20;99.90
33761;DHT22;20084;47.912;19.044;2023-08-31T11:02:38;22.40;99.90
33761;DHT22;20084;47.912;19.044;2023-08-31T11:05:11;22.60;99.90
33761;DHT22;20084;47.912;19.044;2023-08-31T11:07:39;22.50;99.90
33761;DHT22;20084;47.912;19.044;2023-08-31T11:10:11;22.40;99.90
33761;DHT22;20084;47.912;19.044;2023-08-31T11:12:37;22.10;99.90
33761;DHT22;20084;47.912;19.044;2023-08-31T11:15:04;22.10;99.90
33761;DHT22;20084;47.912;19.044;2023-08-31T11:17:30;22.20;99.90
33761;DHT22;20084;47.912;19.044;2023-08-31T11:19:59;22.30;99.90
33761;DHT22;20084;47.912;19.044;2023-08-31T11:22:25;22.20;99.90
33761;DHT22;20084;47.912;19.044;2023-08-31T11:24:51;22.20;99.90
33761;DHT22;20084;47.912;19.044;2023-08-31T11:27:21;22.30;99.90
33761;DHT22;20084;47.912;19.044;2023-08-31T11:29:47;22.40;99.90
33761;DHT22;20084;47.912;19.044;2023-08-31T11:32:13;22.30;99.90
33761;DHT22;20084;47.912;19.044;2023-08-31T11:34:43;22.40;99.90
33761;DHT22;20084;47.912;19.044;2023-08-31T11:37:10;22.50;99.90
33761;DHT22;20084;47.912;19.044;2023-08-31T11:39:37;22.50;99.90
33761;DHT22;20084;47.912;19.044;2023-08-31T11:42:05;22.60;99.90
33761;DHT22;20084;47.912;19.044;2023-08-31T11:44:31;22.60;99.90
33761;DHT22;20084;47.912;19.044;2023-08-31T11:46:57;22.70;99.90
33761;DHT22;20084;47.912;19.044;2023-08-31T11:49:23;22.80;99.90
33761;DHT22;20084;47.912;19.044;2023-08-31T11:51:49;22.70;99.90
33761;DHT22;20084;47.912;19.044;2023-08-31T11:54:16;22.70;99.90
33761;DHT22;20084;47.912;19.044;2023-08-31T11:56:43;22.70;99.90
33761;DHT22;20084;47.912;19.044;2023-08-31T11:59:14;22.70;99.90
33761;DHT22;20084;47.912;19.044;2023-08-31T12:01:45;22.80;99.90
33761;DHT22;20084;47.912;19.044;2023-08-31T12:04:22;23.00;99.90
33761;DHT22;20084;47.912;19.044;2023-08-31T12:06:51;23.10;99.90
33761;DHT22;20084;47.912;19.044;2023-08-31T12:09:17;23.10;99.90
33761;DHT22;20084;47.912;19.044;2023-08-31T12:11:49;23.10;99.90
33761;DHT22;20084;47.912;19.044;2023-08-31T12:14:18;23.10;99.90
33761;DHT22;20084;47.912;19.044;2023-08-31T12:16:44;23.10;99.90
33761;DHT22;20084;47.912;19.044;2023-08-31T12:19:10;23.10;99.90
33761;DHT22;20084;47.912;19.044;2023-08-31T12:21:36;23.00;99.90
33761;DHT22;20084;47.912;19.044;2023-08-31T12:24:02;23.00;99.90
33761;DHT22;20084;47.912;19.044;2023-08-31T12:26:28;23.00;99.90
33761;DHT22;20084;47.912;19.044;2023-08-31T12:28:54;23.20;99.90
33761;DHT22;20084;47.912;19.044;2023-08-31T12:31:21;23.30;99.90
33761;DHT22;20084;47.912;19.044;2023-08-31T12:33:47;23.40;99.90
33761;DHT22;20084;47.912;19.044;2023-08-31T12:36:13;23.40;99.90
33761;DHT22;20084;47.912;19.044;2023-08-31T12:38:39;23.30;99.90
33761;DHT22;20084;47.912;19.044;2023-08-31T12:41:04;23.10;99.90
33761;DHT22;20084;47.912;19.044;2023-08-31T12:43:30;22.80;99.90
33761;DHT22;20084;47.912;19.044;2023-08-31T12:45:57;22.60;99.90
33761;DHT22;20084;47.912;19.044;2023-08-31T12:48:22;22.70;99.90
33761;DHT22;20084;47.912;19.044;2023-08-31T12:50:48;22.80;99.90
33761;DHT22;20084;47.912;19.044;2023-08-31T12:53:14;22.90;99.90
33761;DHT22;20084;47.912;19.044;2023-08-31T12:55:40;23.10;99.90
33761;DHT22;20084;47.912;19.044;2023-08-31T12:58:06;23.20;99.90
33761;DHT22;20084;47.912;19.044;2023-08-31T13:00:31;23.30;99.90
33761;DHT22;20084;47.912;19.044;2023-08-31T13:02:57;23.30;99.90
33761;DHT22;20084;47.912;19.044;2023-08-31T13:05:23;23.40;99.90
33761;DHT22;20084;47.912;19.044;2023-08-31T13:07:48;23.50;99.90
33761;DHT22;20084;47.912;19.044;2023-08-31T13:10:14;23.70;99.90
33761;DHT22;20084;47.912;19.044;2023-08-31T13:12:40;23.80;99.90
33761;DHT22;20084;47.912;19.044;2023-08-31T13:15:06;23.80;99.90
33761;DHT22;20084;47.912;19.044;2023-08-31T13:17:33;23.90;99.90
33761;DHT22;20084;47.912;19.044;2023-08-31T13:19:59;24.00;99.90
33761;DHT22;20084;47.912;19.044;2023-08-31T13:22:25;24.10;99.90
33761;DHT22;20084;47.912;19.044;2023-08-31T13:24:51;24.20;99.90
33761;DHT22;20084;47.912;19.044;2023-08-31T13:27:17;24.40;99.90
33761;DHT22;20084;47.912;19.044;2023-08-31T13:29:44;24.20;99.90
33761;DHT22;20084;47.912;19.044;2023-08-31T13:32:09;24.00;99.90
33761;DHT22;20084;47.912;19.044;2023-08-31T13:34:35;23.80;99.90
33761;DHT22;20084;47.912;19.044;2023-08-31T13:37:04;23.80;99.90
33761;DHT22;20084;47.912;19.044;2023-08-31T13:39:31;23.90;99.90
33761;DHT22;20084;47.912;19.044;2023-08-31T13:41:56;24.00;99.90
33761;DHT22;20084;47.912;19.044;2023-08-31T13:44:22;24.20;99.90
33761;DHT22;20084;47.912;19.044;2023-08-31T13:46:48;24.30;99.90
33761;DHT22;20084;47.912;19.044;2023-08-31T13:49:14;24.40;99.90
33761;DHT22;20084;47.912;19.044;2023-08-31T13:51:41;24.50;99.90
33761;DHT22;20084;47.912;19.044;2023-08-31T13:54:07;24.60;99.90
33761;DHT22;20084;47.912;19.044;2023-08-31T13:56:33;24.50;99.90
33761;DHT22;20084;47.912;19.044;2023-08-31T13:58:59;24.60;99.90
33761;DHT22;20084;47.912;19.044;2023-08-31T14:01:25;24.50;99.90
33761;DHT22;20084;47.912;19.044;2023-08-31T14:03:51;24.50;99.90
33761;DHT22;20084;47.912;19.044;2023-08-31T14:06:17;24.50;99.90
33761;DHT22;20084;47.912;19.044;2023-08-31T14:08:42;24.30;99.90
33761;DHT22;20084;47.912;19.044;2023-08-31T14:11:08;24.20;99.90
33761;DHT22;20084;47.912;19.044;2023-08-31T14:13:34;24.10;99.70
33761;DHT22;20084;47.912;19.044;2023-08-31T14:16:00;24.10;99.90
33761;DHT22;20084;47.912;19.044;2023-08-31T14:18:29;23.90;99.00
33761;DHT22;20084;47.912;19.044;2023-08-31T14:20:56;23.90;99.90
33761;DHT22;20084;47.912;19.044;2023-08-31T14:23:23;23.90;99.90
33761;DHT22;20084;47.912;19.044;2023-08-31T14:25:49;24.10;99.90
33761;DHT22;20084;47.912;19.044;2023-08-31T14:28:15;24.10;99.50
33761;DHT22;20084;47.912;19.044;2023-08-31T14:30:40;24.10;99.90
33761;DHT22;20084;47.912;19.044;2023-08-31T14:33:06;24.20;99.70
33761;DHT22;20084;47.912;19.044;2023-08-31T14:35:36;24.20;99.90
33761;DHT22;20084;47.912;19.044;2023-08-31T14:38:02;24.30;99.90
33761;DHT22;20084;47.912;19.044;2023-08-31T14:40:27;24.50;99.90
33761;DHT22;20084;47.912;19.044;2023-08-31T14:42:54;24.60;99.90
33761;DHT22;20084;47.912;19.044;2023-08-31T14:45:20;24.50;98.70
33761;DHT22;20084;47.912;19.044;2023-08-31T14:47:47;24.30;99.90
33761;DHT22;20084;47.912;19.044;2023-08-31T14:50:13;24.30;99.90
33761;DHT22;20084;47.912;19.044;2023-08-31T14:52:39;24.20;99.10
33761;DHT22;20084;47.912;19.044;2023-08-31T14:55:04;24.30;99.90
33761;DHT22;20084;47.912;19.044;2023-08-31T14:57:30;24.40;99.90
33761;DHT22;20084;47.912;19.044;2023-08-31T14:59:56;24.40;99.90
33761;DHT22;20084;47.912;19.044;2023-08-31T15:02:24;24.50;99.90
33761;DHT22;20084;47.912;19.044;2023-08-31T15:04:51;24.50;99.40
33761;DHT22;20084;47.912;19.044;2023-08-31T15:07:17;24.30;98.50
33761;DHT22;20084;47.912;19.044;2023-08-31T15:09:43;24.10;98.20
33761;DHT22;20084;47.912;19.044;2023-08-31T15:12:09;23.90;97.60
33761;DHT22;20084;47.912;19.044;2023-08-31T15:14:37;23.70;99.20
33761;DHT22;20084;47.912;19.044;2023-08-31T15:17:05;23.60;99.30
33761;DHT22;20084;47.912;19.044;2023-08-31T15:19:31;23.50;99.10
33761;DHT22;20084;47.912;19.044;2023-08-31T15:22:00;23.40;99.20
33761;DHT22;20084;47.912;19.044;2023-08-31T15:24:28;23.40;99.80
33761;DHT22;20084;47.912;19.044;2023-08-31T15:26:54;23.40;99.40
33761;DHT22;20084;47.912;19.044;2023-08-31T15:29:21;23.40;99.00
33761;DHT22;20084;47.912;19.044;2023-08-31T15:31:46;23.30;99.90